Time;durP1;ratioP1;P1;durP2;ratioP2;P2;SDS_P1;SDS_P2;PMS_P1;PMS_P2;Temp;Humidity;BMP_temperature;BMP_pressure;BME280_temperature;BME280_humidity;BME280_pressure;Samples;Min_cycle;Max_cycle;Signal;HPM_P1;HPM_P2
2023/01/17 00:01:38;;;;;;;10.20;6.10;;;;;;;6.50;100.00;96501.98;267368;1279;22537;-86
2023/01/17 00:14:13;;;;;;;12.10;6.80;;;;;;;6.40;100.00;96488.10;267253;1279;24045;-84
2023/01/17 01:37:43;;;;;;;10.50;5.70;;;;;;;6.35;100.00;96464.34;267081;1280;22590;-85
2023/01/17 01:43:52;;;;;;;9.70;5.00;;;;;;;6.07;100.00;96457.11;266776;1280;22544;-87
2023/01/17 01:49:56;;;;;;;11.10;5.20;;;;;;;5.84;100.00;96448.33;267158;1280;27671;-85
2023/01/17 01:56:00;;;;;;;8.40;4.80;;;;;;;5.89;100.00;96446.20;266206;1279;23309;-85
2023/01/17 02:02:06;;;;;;;11.30;6.10;;;;;;;5.58;100.00;96430.98;267624;1279;22543;-86
2023/01/17 02:08:33;;;;;;;8.70;4.80;;;;;;;5.54;100.00;96434.49;268425;1277;22590;-85
2023/01/17 02:14:36;;;;;;;6.30;3.20;;;;;;;5.64;100.00;96437.34;266953;1279;22568;-83
2023/01/17 02:20:51;;;;;;;6.20;3.40;;;;;;;5.79;100.00;96438.66;266825;1279;22605;-83
2023/01/17 02:27:09;;;;;;;7.70;3.40;;;;;;;5.89;100.00;96449.72;266921;1279;22585;-86
2023/01/17 02:33:42;;;;;;;8.20;4.20;;;;;;;5.82;100.00;96446.81;267592;1277;27743;-84
2023/01/17 02:39:56;;;;;;;7.60;4.00;;;;;;;5.73;100.00;96445.31;267384;1279;23431;-83
2023/01/17 02:46:02;;;;;;;6.30;3.60;;;;;;;5.57;100.00;96441.74;267295;1275;22541;-84
2023/01/17 02:52:17;;;;;;;6.70;3.50;;;;;;;5.35;100.00;96457.79;267298;1279;22582;-83
2023/01/17 02:58:48;;;;;;;7.10;4.10;;;;;;;5.24;100.00;96458.75;267319;1276;26797;-83
2023/01/17 03:05:06;;;;;;;6.30;3.30;;;;;;;5.05;100.00;96466.02;267687;1279;22571;-83
2023/01/17 03:11:30;;;;;;;6.50;3.60;;;;;;;5.03;100.00;96469.89;268430;1279;28508;-82
2023/01/17 03:17:33;;;;;;;8.10;3.70;;;;;;;4.95;100.00;96472.36;268090;1279;22542;-84
2023/01/17 03:23:44;;;;;;;5.70;3.20;;;;;;;4.87;100.00;96485.34;267258;1279;23923;-87
2023/01/17 03:29:50;;;;;;;6.60;3.60;;;;;;;4.73;100.00;96490.05;266982;1279;22598;-85
2023/01/17 03:35:56;;;;;;;7.30;3.80;;;;;;;4.63;100.00;96501.55;266919;1279;22559;-83
2023/01/17 03:42:05;;;;;;;4.30;2.70;;;;;;;4.70;100.00;96497.92;267258;1279;25357;-84
2023/01/17 03:48:07;;;;;;;5.60;2.70;;;;;;;4.58;100.00;96502.63;267121;1279;24297;-86
2023/01/17 03:54:13;;;;;;;5.20;2.70;;;;;;;4.51;100.00;96506.24;267221;1279;25489;-85
2023/01/17 04:00:19;;;;;;;6.10;2.90;;;;;;;4.28;100.00;96514.41;267204;1271;22596;-84
2023/01/17 04:06:22;;;;;;;4.60;2.50;;;;;;;4.08;100.00;96513.05;267153;1279;22629;-86
2023/01/17 04:12:40;;;;;;;4.40;2.40;;;;;;;3.82;100.00;96527.30;267327;1279;24740;-86
2023/01/17 04:18:46;;;;;;;4.70;2.60;;;;;;;3.67;100.00;96532.14;267294;1279;23535;-86
2023/01/17 04:25:05;;;;;;;4.30;2.20;;;;;;;3.72;100.00;96528.58;266988;1279;25324;-85
2023/01/17 04:31:30;;;;;;;6.00;2.40;;;;;;;3.92;100.00;96522.48;267165;1279;22538;-85
2023/01/17 04:37:36;;;;;;;6.60;2.10;;;;;;;4.09;100.00;96514.92;267074;1279;22596;-84
2023/01/17 04:43:41;;;;;;;5.40;2.80;;;;;;;4.25;100.00;96512.25;267196;1272;22580;-86
2023/01/17 04:50:25;;;;;;;3.80;2.20;;;;;;;4.48;100.00;96510.21;267220;1279;22591;-86
2023/01/17 04:56:47;;;;;;;5.00;2.50;;;;;;;4.58;100.00;96519.81;267049;1279;22571;-86
2023/01/17 05:03:01;;;;;;;4.50;2.40;;;;;;;4.71;100.00;96531.19;266887;1279;25558;-88
2023/01/17 05:09:17;;;;;;;3.10;2.20;;;;;;;4.85;100.00;96526.92;267270;1279;22553;-86
2023/01/17 05:15:29;;;;;;;3.40;1.70;;;;;;;4.97;100.00;96533.02;267370;1279;25358;-86
2023/01/17 05:21:46;;;;;;;4.00;2.20;;;;;;;5.06;100.00;96527.86;267184;1279;22571;-85
2023/01/17 05:27:49;;;;;;;4.00;1.90;;;;;;;5.19;100.00;96525.11;267666;1261;22604;-83
2023/01/17 05:34:13;;;;;;;4.60;2.40;;;;;;;5.29;100.00;96518.49;266921;1280;24259;-84
2023/01/17 05:40:28;;;;;;;3.60;2.10;;;;;;;5.26;100.00;96518.05;267338;1276;22535;-87
2023/01/17 05:46:41;;;;;;;4.70;2.20;;;;;;;5.39;100.00;96508.21;267062;1280;22579;-85
2023/01/17 05:52:51;;;;;;;3.90;2.40;;;;;;;5.27;100.00;96494.84;267046;1279;22571;-85
2023/01/17 05:58:55;;;;;;;4.50;2.50;;;;;;;5.35;100.00;96495.84;266766;1281;24049;-85
2023/01/17 06:05:01;;;;;;;4.30;2.30;;;;;;;5.19;100.00;96517.64;266587;1273;22582;-84
2023/01/17 06:11:05;;;;;;;4.10;2.30;;;;;;;5.16;100.00;96526.31;267062;1281;22618;-85
2023/01/17 06:17:37;;;;;;;4.60;2.60;;;;;;;5.17;100.00;96524.67;267004;1280;25277;-86
2023/01/17 06:23:42;;;;;;;6.90;2.40;;;;;;;5.14;100.00;96523.17;267299;1280;25254;-85
2023/01/17 06:29:45;;;;;;;4.00;2.40;;;;;;;5.13;100.00;96513.67;267217;1273;22676;-85
2023/01/17 06:35:51;;;;;;;;;;;;;;;5.31;100.00;96515.05;267495;1279;22643;-83
2023/01/17 06:42:19;;;;;;;5.70;2.90;;;;;;;5.48;100.00;96526.31;268011;1279;22538;-86
2023/01/17 06:48:22;;;;;;;5.90;2.20;;;;;;;5.49;100.00;96529.20;267999;1267;22637;-85
2023/01/17 06:54:25;;;;;;;5.70;2.40;;;;;;;5.55;100.00;96528.48;267423;1279;22543;-86
2023/01/17 07:00:30;;;;;;;5.80;2.60;;;;;;;5.73;100.00;96523.48;266989;1279;25358;-83
2023/01/17 07:06:35;;;;;;;6.10;3.00;;;;;;;5.86;100.00;96523.52;266403;1260;22532;-82
2023/01/17 07:12:41;;;;;;;5.90;2.80;;;;;;;5.96;100.00;96529.11;266737;1277;22586;-81
2023/01/17 07:18:50;;;;;;;6.20;3.30;;;;;;;6.10;100.00;96530.16;266533;1274;25541;-81
2023/01/17 07:24:57;;;;;;;6.10;3.60;;;;;;;6.43;100.00;96529.10;266546;1274;22594;-81
2023/01/17 07:31:05;;;;;;;6.10;3.20;;;;;;;6.38;100.00;96530.58;266641;1267;22547;-82
2023/01/17 07:37:09;;;;;;;4.90;2.70;;;;;;;6.56;100.00;96522.80;266468;1264;24242;-82
2023/01/17 07:43:15;;;;;;;6.70;3.60;;;;;;;6.56;100.00;96536.20;266984;1261;22621;-83
2023/01/17 07:49:18;;;;;;;5.40;3.00;;;;;;;6.64;100.00;96544.97;266335;1273;22618;-82
2023/01/17 07:55:21;;;;;;;5.20;3.00;;;;;;;6.57;100.00;96546.29;266377;1276;23410;-82
2023/01/17 08:01:24;;;;;;;7.40;3.70;;;;;;;6.72;100.00;96552.70;266535;1272;25398;-81
2023/01/17 08:07:28;;;;;;;7.70;4.20;;;;;;;6.87;100.00;96558.52;266399;1266;22564;-81
2023/01/17 08:13:31;;;;;;;7.60;4.10;;;;;;;6.88;100.00;96563.22;266316;1264;24224;-79
2023/01/17 08:19:35;;;;;;;7.60;4.20;;;;;;;6.99;100.00;96568.39;266432;1279;23000;-82
2023/01/17 08:25:38;;;;;;;10.00;4.50;;;;;;;7.23;100.00;96578.36;266270;1263;23291;-83
2023/01/17 08:31:43;;;;;;;8.60;4.30;;;;;;;7.25;100.00;96584.13;267359;1257;24228;-80
2023/01/17 08:37:47;;;;;;;7.60;4.30;;;;;;;7.41;100.00;96593.52;266559;1260;23266;-83
2023/01/17 08:43:51;;;;;;;8.20;4.10;;;;;;;7.68;100.00;96596.91;267673;1273;24237;-81
2023/01/17 08:49:53;;;;;;;7.90;4.00;;;;;;;7.80;100.00;96606.25;266491;1274;24201;-80
2023/01/17 08:56:00;;;;;;;8.00;4.20;;;;;;;7.91;100.00;96611.44;266170;1273;22924;-80
2023/01/17 09:02:13;;;;;;;7.80;4.70;;;;;;;8.03;100.00;96617.55;266598;1273;22569;-80
2023/01/17 09:08:17;;;;;;;10.60;5.20;;;;;;;8.06;100.00;96616.48;266872;1273;22545;-79
2023/01/17 09:14:20;;;;;;;10.40;5.90;;;;;;;8.08;100.00;96621.11;266699;1258;24067;-79
2023/01/17 09:20:24;;;;;;;8.60;5.60;;;;;;;8.27;100.00;96629.33;266522;1275;22580;-80
2023/01/17 09:26:28;;;;;;;17.40;8.50;;;;;;;8.50;100.00;96627.23;266363;1273;22593;-79
2023/01/17 09:32:31;;;;;;;15.50;8.50;;;;;;;8.70;100.00;96634.95;266395;1262;24263;-80
2023/01/17 09:38:35;;;;;;;18.00;9.10;;;;;;;8.66;100.00;96633.54;266691;1274;25348;-79
2023/01/17 09:44:42;;;;;;;18.60;10.10;;;;;;;9.06;100.00;96633.09;266389;1273;26378;-77
2023/01/17 09:51:09;;;;;;;19.20;10.30;;;;;;;9.67;95.97;96633.50;266409;1273;25363;-79
2023/01/17 09:57:37;;;;;;;19.80;9.90;;;;;;;9.92;89.80;96626.42;266354;1259;22572;-79
2023/01/17 10:03:56;;;;;;;20.90;9.80;;;;;;;10.18;88.87;96626.33;266621;1273;22549;-79
2023/01/17 10:10:38;;;;;;;20.10;10.20;;;;;;;10.34;86.49;96622.05;266557;1272;22570;-79
2023/01/17 10:16:55;;;;;;;18.20;8.70;;;;;;;10.54;84.25;96626.27;265525;1272;25242;-78
2023/01/17 10:23:26;;;;;;;14.50;7.60;;;;;;;10.57;79.68;96632.52;266603;1274;22582;-78
2023/01/17 10:29:32;;;;;;;13.60;7.00;;;;;;;10.44;77.14;96632.02;266633;1273;22600;-78
2023/01/17 10:35:37;;;;;;;14.10;7.70;;;;;;;10.27;78.36;96634.54;266199;1272;22663;-78
2023/01/17 10:41:42;;;;;;;13.80;8.00;;;;;;;10.34;78.29;96644.88;266240;1273;24236;-79
2023/01/17 10:47:50;;;;;;;15.10;7.20;;;;;;;10.37;78.23;96646.66;266777;1273;24396;-78
2023/01/17 10:54:06;;;;;;;13.70;7.00;;;;;;;10.13;78.14;96655.18;266156;1273;22653;-78
2023/01/17 11:00:27;;;;;;;18.50;9.90;;;;;;;10.01;79.58;96660.80;266487;1265;24041;-78
2023/01/17 11:06:32;;;;;;;15.80;7.90;;;;;;;10.21;79.96;96661.11;266015;1279;24429;-83
2023/01/17 11:12:40;;;;;;;12.60;6.50;;;;;;;10.27;79.98;96671.92;266376;1279;22852;-81
2023/01/17 11:18:42;;;;;;;9.50;4.40;;;;;;;10.39;76.79;96666.04;266429;1271;24278;-81
2023/01/17 11:24:52;;;;;;;7.20;3.40;;;;;;;10.30;71.76;96664.91;266375;1273;22599;-81
2023/01/17 11:30:57;;;;;;;6.40;3.00;;;;;;;10.29;69.74;96663.37;266458;1279;25599;-81
2023/01/17 11:37:17;;;;;;;6.20;3.40;;;;;;;10.26;69.68;96659.14;266387;1277;22619;-81
2023/01/17 11:43:24;;;;;;;8.40;4.30;;;;;;;10.20;68.70;96656.60;266306;1279;25372;-83
2023/01/17 11:49:28;;;;;;;7.60;4.10;;;;;;;10.19;68.95;96655.80;266234;1279;25317;-82
2023/01/17 11:55:31;;;;;;;9.30;4.60;;;;;;;10.14;68.90;96652.32;266486;1279;23171;-84
2023/01/17 12:01:48;;;;;;;10.70;5.00;;;;;;;10.16;69.18;96649.66;266412;1264;25473;-83
2023/01/17 12:08:09;;;;;;;9.80;4.90;;;;;;;10.19;69.37;96644.36;266528;1279;73030;-83
2023/01/17 12:14:29;;;;;;;6.20;3.50;;;;;;;10.22;68.24;96630.20;266888;1272;23365;-82
2023/01/17 12:20:32;;;;;;;6.40;3.00;;;;;;;10.24;66.84;96622.17;268219;1279;22543;-81
2023/01/17 12:26:37;;;;;;;5.60;2.80;;;;;;;10.18;65.64;96621.91;266624;1264;22535;-81
2023/01/17 12:33:04;;;;;;;7.10;3.10;;;;;;;10.36;65.57;96626.69;268255;1272;22575;-82
2023/01/17 12:39:10;;;;;;;6.30;3.00;;;;;;;10.32;65.84;96635.40;267148;1279;25407;-87
2023/01/17 12:45:19;;;;;;;;;;;;;;;10.34;65.97;96633.86;266501;1279;22692;-84
2023/01/17 12:51:36;;;;;;;7.70;3.30;;;;;;;10.44;65.81;96628.02;266515;1261;24667;-83
2023/01/17 12:57:46;;;;;;;5.50;2.60;;;;;;;10.39;65.55;96630.33;266317;1279;22733;-83
2023/01/17 13:04:22;;;;;;;5.00;2.60;;;;;;;10.41;64.64;96640.08;266187;1279;22558;-83
2023/01/17 13:10:39;;;;;;;4.70;2.30;;;;;;;10.44;64.20;96640.85;265963;1273;24271;-82
2023/01/17 13:17:03;;;;;;;5.50;2.70;;;;;;;10.50;64.80;96651.42;265985;1274;22551;-84
2023/01/17 13:23:27;;;;;;;5.00;2.00;;;;;;;10.42;64.31;96659.89;265948;1279;22536;-82
2023/01/17 13:29:55;;;;;;;4.00;1.60;;;;;;;10.39;62.88;96665.62;265998;1279;25102;-83
2023/01/17 13:35:58;;;;;;;6.80;1.70;;;;;;;10.47;63.41;96681.33;266067;1257;22588;-84
2023/01/17 13:42:10;;;;;;;3.10;1.50;;;;;;;10.29;63.37;96688.28;266066;1280;25360;-84
2023/01/17 13:48:16;;;;;;;2.80;1.40;;;;;;;10.26;63.53;96689.44;266473;1273;24226;-85
2023/01/17 13:54:32;;;;;;;2.60;1.20;;;;;;;10.32;63.28;96694.36;266462;1279;22960;-84
2023/01/17 14:00:41;;;;;;;3.20;1.40;;;;;;;10.29;62.27;96713.73;266398;1279;22663;-83
2023/01/17 14:06:51;;;;;;;2.90;1.70;;;;;;;9.97;63.28;96719.04;266443;1275;23514;-83
2023/01/17 14:12:55;;;;;;;3.50;1.70;;;;;;;9.78;64.35;96725.05;266602;1261;24233;-84
2023/01/17 14:18:58;;;;;;;4.30;1.60;;;;;;;9.69;64.80;96731.58;266377;1273;22580;-83
2023/01/17 14:25:03;;;;;;;2.80;1.30;;;;;;;9.56;65.65;96740.05;266376;1274;25591;-83
2023/01/17 14:31:09;;;;;;;2.90;1.30;;;;;;;9.38;66.59;96743.35;266386;1258;22592;-83
2023/01/17 14:37:35;;;;;;;3.30;1.90;;;;;;;9.27;66.80;96753.14;266589;1273;23988;-83
2023/01/17 14:43:41;;;;;;;2.90;1.70;;;;;;;9.16;67.24;96758.42;266345;1274;25366;-85
2023/01/17 14:49:46;;;;;;;4.40;1.50;;;;;;;9.07;67.77;96772.58;266456;1273;22662;-83
2023/01/17 14:55:53;;;;;;;4.40;1.90;;;;;;;8.94;68.10;96781.81;266763;1274;24226;-88
2023/01/17 15:02:00;;;;;;;4.10;2.10;;;;;;;8.75;69.10;96786.23;268006;1274;24100;-86
2023/01/17 15:08:17;;;;;;;4.90;1.60;;;;;;;8.53;69.92;96802.45;267811;1256;22530;-86
2023/01/17 15:14:37;;;;;;;3.80;1.70;;;;;;;8.29;70.98;96805.75;267914;1279;24240;-86
2023/01/17 15:20:45;;;;;;;2.60;1.40;;;;;;;8.14;73.67;96810.59;267976;1279;25257;-85
2023/01/17 15:26:52;;;;;;;5.50;1.80;;;;;;;7.88;74.70;96809.12;267911;1279;24730;-86
2023/01/17 15:32:57;;;;;;;4.00;1.90;;;;;;;7.66;75.15;96817.35;267891;1266;24252;-87
2023/01/17 15:39:22;;;;;;;4.50;2.00;;;;;;;7.52;76.81;96821.14;267233;1279;25317;-82
2023/01/17 15:45:30;;;;;;;3.70;1.90;;;;;;;7.42;77.73;96823.05;266421;1273;24326;-82
2023/01/17 15:51:37;;;;;;;4.10;1.70;;;;;;;7.34;78.31;96824.00;266690;1273;25184;-82
2023/01/17 15:57:46;;;;;;;3.60;2.10;;;;;;;7.21;80.29;96805.85;266351;1274;24880;-83
2023/01/17 16:03:53;;;;;;;3.60;1.90;;;;;;;6.89;86.40;96800.68;266393;1261;22687;-84
2023/01/17 16:10:34;;;;;;;7.50;3.70;;;;;;;7.03;89.83;96787.63;266355;1279;22560;-84
2023/01/17 16:16:37;;;;;;;7.10;3.60;;;;;;;7.04;85.25;96785.34;266316;1279;22537;-85
2023/01/17 16:22:42;;;;;;;7.50;3.50;;;;;;;6.94;86.29;96789.75;266798;1276;22536;-84
2023/01/17 16:28:46;;;;;;;8.30;3.70;;;;;;;6.86;86.66;96781.45;266728;1263;24213;-81
2023/01/17 16:34:49;;;;;;;10.40;4.70;;;;;;;6.83;86.12;96780.16;266221;1279;23415;-84
2023/01/17 16:40:52;;;;;;;8.70;4.40;;;;;;;6.87;86.40;96766.39;265996;1279;22537;-82
2023/01/17 16:46:59;;;;;;;8.20;4.00;;;;;;;6.90;85.99;96747.23;266258;1276;22650;-82
2023/01/17 16:53:02;;;;;;;9.70;3.90;;;;;;;6.89;87.43;96756.99;266059;1277;24050;-83
2023/01/17 16:59:05;;;;;;;7.70;3.80;;;;;;;6.87;88.59;96751.38;266449;1261;25362;-83
2023/01/17 17:05:09;;;;;;;6.90;3.10;;;;;;;6.71;91.06;96754.10;266243;1274;25383;-85
2023/01/17 17:11:18;;;;;;;9.60;3.80;;;;;;;6.62;92.86;96773.83;266645;1274;22983;-85
2023/01/17 17:17:20;;;;;;;10.00;4.30;;;;;;;6.71;91.99;96745.98;266438;1273;24474;-84
2023/01/17 17:23:23;;;;;;;8.60;3.60;;;;;;;6.69;94.47;96746.25;266359;1261;22651;-84
2023/01/17 17:29:26;;;;;;;9.90;3.90;;;;;;;6.75;94.99;96727.04;266360;1272;22664;-80
2023/01/17 17:35:32;;;;;;;8.30;3.60;;;;;;;7.05;93.57;96735.65;266382;1279;22536;-85
2023/01/17 17:41:38;;;;;;;8.20;3.90;;;;;;;6.88;94.21;96748.60;267302;1280;22753;-85
2023/01/17 17:47:43;;;;;;;10.80;4.90;;;;;;;6.77;95.81;96735.33;267556;1274;22625;-85
2023/01/17 17:53:46;;;;;;;11.30;4.80;;;;;;;6.74;97.72;96727.14;267363;1275;23285;-85
2023/01/17 17:59:55;;;;;;;12.70;4.60;;;;;;;6.89;96.37;96737.43;267499;1279;22535;-85
2023/01/17 18:06:01;;;;;;;12.10;5.10;;;;;;;6.88;96.19;96728.46;267524;1274;22575;-86
2023/01/17 18:12:06;;;;;;;9.40;4.90;;;;;;;6.81;97.63;96732.88;266692;1280;22619;-87
2023/01/17 18:18:09;;;;;;;12.60;5.40;;;;;;;6.69;98.70;96750.95;266379;1274;22557;-87
2023/01/17 18:24:22;;;;;;;15.30;7.30;;;;;;;6.68;98.63;96756.71;266577;1278;22692;-89
2023/01/17 18:30:25;;;;;;;17.10;7.70;;;;;;;6.86;96.33;96766.44;266229;1273;22589;-86
2023/01/17 18:36:30;;;;;;;15.30;6.10;;;;;;;6.99;96.48;96758.09;266086;1280;25583;-86
2023/01/17 18:42:33;;;;;;;12.10;4.90;;;;;;;6.96;98.35;96757.75;266347;1280;23302;-87
2023/01/17 18:48:37;;;;;;;9.90;4.70;;;;;;;6.98;98.74;96769.67;266324;1279;22621;-89
2023/01/17 18:54:40;;;;;;;14.10;6.00;;;;;;;6.89;99.36;96773.92;266272;1279;25211;-87
2023/01/17 19:00:43;;;;;;;10.30;5.20;;;;;;;7.01;97.77;96765.30;266140;1279;26019;-87
2023/01/17 19:06:47;;;;;;;16.50;6.50;;;;;;;6.82;99.48;96750.30;266170;1279;25302;-86
2023/01/17 19:12:50;;;;;;;14.20;7.60;;;;;;;7.10;95.75;96736.24;266478;1280;22585;-85
2023/01/17 19:18:55;;;;;;;18.80;8.00;;;;;;;7.04;96.37;96733.57;266215;1279;22677;-86
2023/01/17 19:24:58;;;;;;;12.60;6.10;;;;;;;7.17;97.39;96730.38;266017;1277;22549;-86
2023/01/17 19:31:10;;;;;;;19.20;9.70;;;;;;;6.83;98.73;96737.89;266125;1279;22665;-86
2023/01/17 19:37:13;;;;;;;22.10;10.60;;;;;;;6.47;100.00;96744.23;266080;1271;25429;-87
2023/01/17 19:43:19;;;;;;;24.20;11.10;;;;;;;6.87;100.00;96758.20;266181;1279;23008;-87
2023/01/17 19:49:32;;;;;;;24.30;11.10;;;;;;;7.28;99.57;96744.98;266409;1280;22540;-85
2023/01/17 19:55:38;;;;;;;24.90;11.90;;;;;;;7.04;99.52;96733.34;266273;1271;22542;-89
2023/01/17 20:01:42;;;;;;;24.90;12.50;;;;;;;6.73;100.00;96732.90;266296;1263;22576;-85
2023/01/17 20:07:45;;;;;;;28.40;14.10;;;;;;;6.41;100.00;96726.34;266775;1279;22595;-85
2023/01/17 20:13:53;;;;;;;26.30;12.60;;;;;;;6.66;100.00;96705.92;266842;1279;22897;-88
2023/01/17 20:20:00;;;;;;;25.70;12.80;;;;;;;6.91;100.00;96702.13;267521;1263;22547;-86
2023/01/17 20:26:04;;;;;;;31.30;14.50;;;;;;;7.00;100.00;96712.93;267539;1279;24243;-87
2023/01/17 20:32:09;;;;;;;27.20;13.80;;;;;;;6.90;100.00;96703.34;266554;1274;22593;-82
2023/01/17 20:38:12;;;;;;;28.80;14.30;;;;;;;6.90;100.00;96694.06;266465;1260;23381;-81
2023/01/17 20:44:18;;;;;;;25.00;13.30;;;;;;;6.77;100.00;96697.77;267020;1276;22569;-83
2023/01/17 20:50:26;;;;;;;26.30;13.30;;;;;;;6.78;100.00;96701.56;267525;1279;22596;-82
2023/01/17 20:56:33;;;;;;;27.60;14.00;;;;;;;7.07;100.00;96699.84;267699;1276;22712;-85
2023/01/17 21:02:37;;;;;;;28.90;14.30;;;;;;;6.84;100.00;96681.45;267492;1277;22557;-83
2023/01/17 21:08:43;;;;;;;27.10;14.30;;;;;;;6.95;100.00;96690.65;267863;1279;24416;-84
2023/01/17 21:14:47;;;;;;;32.10;14.00;;;;;;;7.24;100.00;96706.23;267436;1277;24167;-83
2023/01/17 21:20:50;;;;;;;30.50;14.40;;;;;;;7.26;100.00;96688.58;267941;1272;22627;-84
2023/01/17 21:26:54;;;;;;;25.60;14.10;;;;;;;6.92;100.00;96676.48;266881;1278;22547;-81
2023/01/17 21:32:57;;;;;;;28.80;14.60;;;;;;;6.79;100.00;96672.02;266736;1276;24310;-82
2023/01/17 21:39:06;;;;;;;31.10;14.80;;;;;;;6.90;100.00;96669.53;267494;1279;24184;-82
2023/01/17 21:45:15;;;;;;;29.80;14.80;;;;;;;6.75;100.00;96671.06;267623;1273;22634;-83
2023/01/17 21:51:18;;;;;;;27.50;13.70;;;;;;;6.57;100.00;96665.10;267184;1277;22709;-82
2023/01/17 22:03:59;;;;;;;23.20;11.80;;;;;;;6.73;100.00;96631.11;267331;1279;22581;-83
2023/01/17 22:10:03;;;;;;;23.30;11.60;;;;;;;6.92;100.00;96616.27;267243;1280;25347;-82
2023/01/17 22:16:09;;;;;;;23.60;10.90;;;;;;;6.61;100.00;96611.17;267448;1272;22655;-82
2023/01/17 22:22:12;;;;;;;21.30;10.90;;;;;;;6.73;100.00;96625.44;267641;1279;24309;-83
2023/01/17 22:28:15;;;;;;;25.20;11.40;;;;;;;6.83;100.00;96624.66;267394;1273;25422;-82
2023/01/17 22:34:18;;;;;;;22.70;10.50;;;;;;;7.09;100.00;96622.14;266442;1274;22853;-82
2023/01/17 22:40:22;;;;;;;18.40;10.20;;;;;;;7.10;100.00;96606.48;266317;1267;25503;-81
2023/01/17 22:46:27;;;;;;;20.00;9.50;;;;;;;7.16;100.00;96597.93;267108;1276;22589;-81
2023/01/17 22:52:31;;;;;;;21.10;9.10;;;;;;;6.88;100.00;96584.97;267624;1276;22566;-82
2023/01/17 22:58:34;;;;;;;17.70;8.40;;;;;;;6.89;100.00;96580.37;267825;1271;23912;-82
2023/01/17 23:04:40;;;;;;;14.80;8.20;;;;;;;6.81;100.00;96568.67;267531;1264;25062;-81
2023/01/17 23:23:33;;;;;;;16.90;8.80;;;;;;;6.46;100.00;96535.88;266399;1280;24062;-81
2023/01/17 23:29:36;;;;;;;17.70;8.60;;;;;;;6.37;100.00;96526.27;267827;1274;22764;-83
2023/01/17 23:35:41;;;;;;;16.60;7.90;;;;;;;6.19;100.00;96507.50;268305;1280;22648;-83
2023/01/17 23:48:09;;;;;;;12.50;7.30;;;;;;;6.21;100.00;96482.05;266295;1280;22706;-82
2023/01/17 23:54:12;;;;;;;13.10;6.10;;;;;;;6.25;100.00;96469.09;266049;1280;22646;-82
